createdAt,value
2019-01-28T00:00:57.737Z,91.83
2019-01-28T00:03:26.803Z,91.80
2019-01-28T00:05:54.148Z,92.81
2019-01-28T00:08:21.957Z,92.34
2019-01-28T00:10:51.314Z,92.59
2019-01-28T00:13:19.073Z,92.18
2019-01-28T00:15:49.505Z,92.43
2019-01-28T00:18:18.415Z,92.87
2019-01-28T00:20:45.747Z,92.86
2019-01-28T00:23:12.959Z,91.86
2019-01-28T00:25:40.022Z,92.36
2019-01-28T00:28:07.342Z,92.32
2019-01-28T00:30:34.752Z,91.97
2019-01-28T00:33:01.845Z,92.03
2019-01-28T00:35:31.811Z,91.98
2019-01-28T00:37:59.200Z,91.30
2019-01-28T00:40:27.606Z,91.37
2019-01-28T00:42:54.991Z,91.62
2019-01-28T00:45:22.094Z,91.85
2019-01-28T00:47:49.183Z,92.58
2019-01-28T00:50:17.853Z,92.46
2019-01-28T00:52:44.950Z,92.47
2019-01-28T00:55:12.126Z,91.91
2019-01-28T00:57:39.186Z,91.07
2019-01-28T01:00:10.154Z,92.09
2019-01-28T01:02:37.622Z,91.83
2019-01-28T01:05:04.889Z,91.31
2019-01-28T01:07:34.012Z,90.82
2019-01-28T01:10:01.067Z,90.80
2019-01-28T01:12:28.242Z,91.44
2019-01-28T01:14:55.383Z,91.63
2019-01-28T01:17:24.660Z,91.88
2019-01-28T01:19:52.697Z,91.30
2019-01-28T01:22:21.994Z,91.60
2019-01-28T01:24:49.555Z,91.47
2019-01-28T01:27:16.736Z,91.59
2019-01-28T01:29:44.003Z,92.12
2019-01-28T01:32:11.321Z,91.56
2019-01-28T01:34:39.381Z,91.35
2019-01-28T01:37:07.149Z,91.27
2019-01-28T01:39:34.498Z,91.64
2019-01-28T01:42:02.169Z,91.81
2019-01-28T01:44:29.825Z,92.41
2019-01-28T01:46:57.284Z,92.03
2019-01-28T01:49:25.381Z,92.34
2019-01-28T01:51:53.547Z,93.15
2019-01-28T01:54:21.699Z,92.65
2019-01-28T01:56:50.799Z,91.93
2019-01-28T01:59:18.979Z,91.73
2019-01-28T02:01:47.083Z,92.25
2019-01-28T02:04:14.251Z,91.51
2019-01-28T02:06:42.548Z,91.90
2019-01-28T02:09:09.614Z,91.45
2019-01-28T02:11:36.878Z,90.81
2019-01-28T02:14:04.058Z,91.39
2019-01-28T02:16:31.136Z,91.85
2019-01-28T02:18:58.207Z,91.87
2019-01-28T02:21:26.443Z,92.44
2019-01-28T02:23:53.534Z,92.24
2019-01-28T02:26:20.592Z,91.84
2019-01-28T02:28:47.674Z,91.77
2019-01-28T02:31:14.725Z,92.05
2019-01-28T02:33:42.474Z,92.10
2019-01-28T02:36:10.767Z,91.24
2019-01-28T02:38:37.831Z,90.54
2019-01-28T02:41:04.912Z,91.00
2019-01-28T02:43:33.473Z,90.13
2019-01-28T02:46:00.523Z,90.20
2019-01-28T02:48:28.036Z,89.63
2019-01-28T02:50:55.439Z,89.45
2019-01-28T02:53:22.510Z,88.84
2019-01-28T02:55:49.594Z,89.40
2019-01-28T02:58:19.231Z,88.87
2019-01-28T03:00:46.823Z,89.39
2019-01-28T03:03:15.993Z,88.37
2019-01-28T03:05:43.418Z,88.35
2019-01-28T03:08:11.477Z,88.45
2019-01-28T03:10:38.541Z,89.06
2019-01-28T03:13:06.095Z,90.67
2019-01-28T03:15:33.917Z,90.29
2019-01-28T03:18:01.378Z,90.38
2019-01-28T03:20:29.550Z,89.27
2019-01-28T03:22:57.212Z,89.09
2019-01-28T03:25:24.977Z,89.11
2019-01-28T03:27:52.580Z,88.40
2019-01-28T03:30:20.573Z,88.40
2019-01-28T03:32:47.926Z,88.85
2019-01-28T03:35:15.625Z,89.27
2019-01-28T03:37:42.785Z,88.28
2019-01-28T03:40:12.716Z,88.51
2019-01-28T03:42:40.346Z,88.09
2019-01-28T03:45:10.140Z,88.52
2019-01-28T03:47:37.815Z,88.94
2019-01-28T03:50:05.688Z,88.35
2019-01-28T03:52:33.142Z,89.85
2019-01-28T03:55:00.909Z,90.12
2019-01-28T03:57:28.202Z,89.83
2019-01-28T03:59:57.073Z,89.40
2019-01-28T04:02:24.343Z,89.20
2019-01-28T04:04:51.413Z,89.64
2019-01-28T04:07:18.450Z,89.50
2019-01-28T04:09:45.489Z,90.03
2019-01-28T04:12:12.897Z,89.60
2019-01-28T04:14:41.378Z,90.48
2019-01-28T04:17:09.457Z,89.94
2019-01-28T04:19:37.310Z,89.84
2019-01-28T04:22:04.668Z,89.63
2019-01-28T04:24:32.327Z,89.26
2019-01-28T04:27:00.193Z,89.43
2019-01-28T04:29:27.868Z,89.75
2019-01-28T04:31:55.311Z,89.34
2019-01-28T04:34:22.691Z,89.36
2019-01-28T04:36:49.742Z,89.45
2019-01-28T04:39:17.481Z,89.88
2019-01-28T04:41:44.835Z,89.57
2019-01-28T04:44:12.189Z,88.77
2019-01-28T04:46:40.154Z,88.02
2019-01-28T04:49:07.214Z,88.79
2019-01-28T04:51:34.556Z,89.28
2019-01-28T04:54:02.327Z,88.26
2019-01-28T04:56:29.981Z,88.46
2019-01-28T04:58:58.410Z,88.79
2019-01-28T05:01:26.430Z,87.70
2019-01-28T05:03:53.532Z,86.67
2019-01-28T05:06:20.836Z,87.67
2019-01-28T05:08:48.186Z,88.54
2019-01-28T05:11:15.232Z,88.44
2019-01-28T05:13:42.590Z,87.75
2019-01-28T05:16:10.053Z,86.99
2019-01-28T05:18:37.405Z,87.38
2019-01-28T05:21:05.064Z,86.55
2019-01-28T05:23:32.737Z,87.10
2019-01-28T05:26:00.184Z,86.88
2019-01-28T05:28:28.163Z,87.20
2019-01-28T05:30:55.914Z,87.38
2019-01-28T05:33:22.966Z,87.53
2019-01-28T05:35:50.842Z,86.54
2019-01-28T05:38:20.058Z,86.41
2019-01-28T05:40:47.797Z,88.19
2019-01-28T05:43:14.866Z,87.75
2019-01-28T05:45:44.151Z,88.05
2019-01-28T05:48:11.211Z,88.49
2019-01-28T05:50:38.314Z,88.90
2019-01-28T05:53:05.403Z,89.36
2019-01-28T05:55:32.465Z,88.91
2019-01-28T05:57:59.922Z,88.67
2019-01-28T06:00:35.201Z,89.03
2019-01-28T06:03:02.294Z,88.90
2019-01-28T06:05:29.444Z,88.58
2019-01-28T06:07:58.102Z,88.25
2019-01-28T06:10:25.151Z,88.55
2019-01-28T06:12:52.216Z,88.97
2019-01-28T06:15:19.490Z,89.15
2019-01-28T06:17:48.711Z,88.48
2019-01-28T06:20:18.029Z,89.07
2019-01-28T06:22:46.404Z,87.98
2019-01-28T06:25:13.447Z,88.60
2019-01-28T06:27:40.493Z,87.21
2019-01-28T06:30:11.980Z,88.31
2019-01-28T06:32:40.051Z,88.11
2019-01-28T06:35:07.261Z,88.12
2019-01-28T06:37:37.270Z,88.76
2019-01-28T06:40:06.608Z,88.67
2019-01-28T06:42:33.858Z,88.22
2019-01-28T06:45:02.916Z,88.55
2019-01-28T06:47:29.994Z,87.98
2019-01-28T06:49:58.868Z,88.13
2019-01-28T06:52:25.971Z,87.73
2019-01-28T06:54:53.039Z,87.46
2019-01-28T06:57:20.105Z,87.80
2019-01-28T06:59:49.091Z,87.92
2019-01-28T07:02:16.162Z,86.99
2019-01-28T07:04:44.350Z,86.69
2019-01-28T07:07:11.468Z,87.23
2019-01-28T07:09:40.003Z,87.18
2019-01-28T07:12:07.105Z,88.26
2019-01-28T07:14:35.678Z,87.08
2019-01-28T07:17:04.543Z,85.97
2019-01-28T07:19:31.614Z,86.63
2019-01-28T07:21:58.697Z,86.26
2019-01-28T07:24:25.767Z,85.75
2019-01-28T07:26:54.663Z,85.29
2019-01-28T07:29:22.107Z,85.27
2019-01-28T07:31:49.459Z,84.52
2019-01-28T07:34:17.864Z,84.83
2019-01-28T07:36:45.724Z,84.52
2019-01-28T07:39:14.789Z,84.96
2019-01-28T07:41:42.903Z,85.78
2019-01-28T07:44:09.962Z,84.87
2019-01-28T07:46:37.534Z,85.71
2019-01-28T07:49:04.585Z,85.82
2019-01-28T07:51:31.663Z,85.97
2019-01-28T07:53:58.718Z,87.46
2019-01-28T07:56:27.591Z,87.39
2019-01-28T07:58:55.664Z,85.81
2019-01-28T08:01:23.150Z,85.46
2019-01-28T08:03:50.898Z,84.79
2019-01-28T08:06:18.675Z,85.63
2019-01-28T08:08:46.118Z,86.20
2019-01-28T08:11:13.745Z,86.89
2019-01-28T08:13:41.134Z,85.93
2019-01-28T08:16:08.338Z,85.53
2019-01-28T08:18:36.668Z,85.75
2019-01-28T08:21:05.553Z,84.81
2019-01-28T08:23:32.621Z,84.51
2019-01-28T08:25:59.678Z,85.72
2019-01-28T08:28:26.845Z,84.20
2019-01-28T08:30:54.989Z,85.37
2019-01-28T08:33:22.163Z,85.11
2019-01-28T08:35:49.196Z,85.13
2019-01-28T08:38:17.457Z,85.15
2019-01-28T08:40:44.609Z,84.56
2019-01-28T08:43:11.774Z,83.28
2019-01-28T08:45:38.927Z,84.82
2019-01-28T08:48:07.270Z,83.71
2019-01-28T08:50:34.654Z,82.97
2019-01-28T08:53:02.318Z,81.57
2019-01-28T08:55:29.469Z,81.24
2019-01-28T08:57:57.610Z,81.78
2019-01-28T09:00:28.165Z,81.85
2019-01-28T09:02:55.233Z,81.13
2019-01-28T09:05:22.588Z,80.84
2019-01-28T09:07:50.106Z,80.68
2019-01-28T09:10:18.258Z,81.19
2019-01-28T09:12:47.247Z,81.53
2019-01-28T09:15:16.252Z,82.98
2019-01-28T09:17:43.326Z,82.81
2019-01-28T09:20:13.330Z,82.86
2019-01-28T09:22:40.890Z,83.85
2019-01-28T09:25:09.914Z,82.07
2019-01-28T09:27:37.541Z,82.59
2019-01-28T09:30:06.633Z,83.61
2019-01-28T09:32:36.181Z,83.81
2019-01-28T09:35:04.089Z,82.56
2019-01-28T09:37:31.138Z,82.27
2019-01-28T09:39:58.593Z,82.48
2019-01-28T09:42:25.649Z,81.81
2019-01-28T09:44:52.738Z,82.90
2019-01-28T09:47:21.633Z,84.22
2019-01-28T09:49:49.885Z,84.20
2019-01-28T09:52:17.128Z,84.29
2019-01-28T09:54:44.453Z,84.62
2019-01-28T09:57:11.495Z,83.54
2019-01-28T09:59:38.620Z,82.42
2019-01-28T10:02:07.774Z,81.15
2019-01-28T10:04:35.167Z,81.90
2019-01-28T10:07:02.232Z,80.93
2019-01-28T10:09:29.319Z,81.60
2019-01-28T10:11:56.484Z,81.03
2019-01-28T10:14:23.671Z,81.12
2019-01-28T10:16:50.738Z,78.97
2019-01-28T10:19:17.831Z,77.42
2019-01-28T10:21:48.957Z,76.37
2019-01-28T10:24:16.447Z,78.00
2019-01-28T10:26:43.875Z,78.77
2019-01-28T10:29:11.227Z,77.30
2019-01-28T10:31:39.518Z,78.49
2019-01-28T10:34:07.778Z,77.52
2019-01-28T10:36:35.340Z,77.84
2019-01-28T10:39:05.046Z,78.42
2019-01-28T10:41:34.655Z,77.51
2019-01-28T10:44:01.819Z,76.84
2019-01-28T10:46:29.364Z,78.08
2019-01-28T10:48:56.645Z,79.94
2019-01-28T10:51:24.027Z,79.68
2019-01-28T10:53:51.238Z,77.49
2019-01-28T10:56:19.647Z,77.52
2019-01-28T10:58:46.940Z,78.06
2019-01-28T11:01:15.855Z,78.77
2019-01-28T11:03:43.034Z,78.10
2019-01-28T11:06:10.110Z,77.53
2019-01-28T11:08:37.578Z,77.25
2019-01-28T11:11:06.481Z,77.79
2019-01-28T11:13:34.421Z,78.10
2019-01-28T11:16:02.029Z,78.30
2019-01-28T11:18:31.357Z,76.98
2019-01-28T11:20:59.028Z,78.46
2019-01-28T11:23:26.700Z,78.93
2019-01-28T11:25:53.838Z,79.28
2019-01-28T11:28:23.925Z,77.71
2019-01-28T11:30:57.856Z,78.82
2019-01-28T11:33:25.389Z,80.49
2019-01-28T11:35:52.706Z,78.84
2019-01-28T11:38:22.082Z,77.08
2019-01-28T11:40:49.150Z,77.93
2019-01-28T11:43:16.270Z,79.06
2019-01-28T11:45:53.049Z,79.51
2019-01-28T11:48:20.332Z,79.15
2019-01-28T11:50:55.673Z,80.03
2019-01-28T11:53:16.787Z,79.33
2019-01-28T11:55:43.847Z,78.86
2019-01-28T11:58:11.332Z,79.79
2019-01-28T12:01:07.732Z,78.87
2019-01-28T12:03:34.957Z,78.88
2019-01-28T12:06:03.898Z,78.54
2019-01-28T12:08:31.099Z,78.33
2019-01-28T12:10:58.209Z,79.43
2019-01-28T12:13:26.482Z,79.05
2019-01-28T12:15:53.677Z,79.02
2019-01-28T12:18:20.730Z,79.07
2019-01-28T12:20:53.504Z,79.30
2019-01-28T12:23:21.359Z,80.20
2019-01-28T12:25:48.753Z,79.95
2019-01-28T12:28:15.894Z,78.86
2019-01-28T12:30:44.782Z,78.19
2019-01-28T12:33:11.836Z,79.17
2019-01-28T12:35:38.902Z,79.78
2019-01-28T12:38:05.981Z,80.22
2019-01-28T12:40:33.045Z,78.58
2019-01-28T12:43:01.901Z,79.52
2019-01-28T12:45:29.282Z,79.48
2019-01-28T12:47:57.241Z,79.12
2019-01-28T12:50:26.314Z,80.54
2019-01-28T12:52:53.742Z,79.73
2019-01-28T12:55:20.796Z,79.35
2019-01-28T12:57:47.854Z,79.79
2019-01-28T13:00:17.878Z,79.53
2019-01-28T13:02:45.609Z,80.38
2019-01-28T13:05:16.220Z,79.18
2019-01-28T13:07:44.116Z,79.27
2019-01-28T13:10:13.508Z,79.24
2019-01-28T13:12:40.567Z,79.49
2019-01-28T13:15:12.390Z,79.83
2019-01-28T13:17:39.921Z,78.87
2019-01-28T13:20:07.782Z,78.72
2019-01-28T13:22:35.493Z,78.42
2019-01-28T13:25:03.427Z,79.59
2019-01-28T13:27:32.185Z,79.61
2019-01-28T13:30:00.799Z,80.09
2019-01-28T13:32:28.228Z,80.57
2019-01-28T13:34:57.418Z,79.87
2019-01-28T13:37:29.094Z,79.44
2019-01-28T13:39:58.273Z,80.03
2019-01-28T13:42:25.934Z,80.14
2019-01-28T13:44:55.438Z,80.51
2019-01-28T13:47:23.205Z,79.52
2019-01-28T13:49:50.967Z,78.90
2019-01-28T13:52:19.753Z,78.22
2019-01-28T13:54:48.163Z,78.18
2019-01-28T13:57:16.418Z,78.14
2019-01-28T13:59:45.606Z,78.08
2019-01-28T14:02:14.087Z,79.30
2019-01-28T14:04:41.141Z,79.02
2019-01-28T14:07:09.614Z,78.71
2019-01-28T14:09:40.452Z,78.30
2019-01-28T14:12:07.914Z,78.43
2019-01-28T14:14:35.987Z,77.79
2019-01-28T14:17:03.228Z,78.77
2019-01-28T14:19:30.995Z,80.63
2019-01-28T14:21:58.820Z,79.81
2019-01-28T14:24:27.244Z,80.46
2019-01-28T14:26:54.765Z,79.61
2019-01-28T14:29:21.815Z,79.74
2019-01-28T14:31:49.062Z,79.88
2019-01-28T14:34:16.119Z,80.58
2019-01-28T14:36:43.190Z,81.03
2019-01-28T14:39:13.812Z,80.27
2019-01-28T14:41:40.145Z,79.95
2019-01-28T14:44:07.310Z,79.92
2019-01-28T14:46:35.792Z,81.98
2019-01-28T14:49:03.756Z,81.13
2019-01-28T14:51:31.518Z,80.60
2019-01-28T14:54:00.071Z,80.10
2019-01-28T14:56:29.233Z,79.87
2019-01-28T14:58:58.226Z,80.05
2019-01-28T15:01:25.751Z,81.32
2019-01-28T15:03:53.660Z,80.14
2019-01-28T15:06:20.845Z,81.58
2019-01-28T15:08:48.099Z,80.82
2019-01-28T15:11:15.138Z,81.40
2019-01-28T15:13:42.237Z,81.86
2019-01-28T15:16:09.401Z,82.10
2019-01-28T15:18:36.566Z,82.43
2019-01-28T15:21:03.622Z,82.07
2019-01-28T15:23:31.755Z,81.76
2019-01-28T15:25:58.962Z,81.13
2019-01-28T15:28:26.342Z,81.11
2019-01-28T15:30:54.017Z,80.83
2019-01-28T15:33:21.556Z,81.19
2019-01-28T15:35:50.040Z,81.05
2019-01-28T15:38:18.011Z,80.30
2019-01-28T15:40:45.210Z,80.95
2019-01-28T15:43:12.375Z,81.85
2019-01-28T15:45:42.021Z,81.50
2019-01-28T15:48:13.347Z,80.82
2019-01-28T15:50:40.394Z,81.22
2019-01-28T15:53:08.289Z,81.20
2019-01-28T15:55:39.041Z,80.16
2019-01-28T15:58:07.090Z,80.18
2019-01-28T16:00:37.308Z,80.36
2019-01-28T16:03:05.472Z,80.57
2019-01-28T16:05:32.863Z,80.13
2019-01-28T16:08:01.078Z,80.87
2019-01-28T16:10:28.125Z,82.64
2019-01-28T16:12:55.645Z,83.04
2019-01-28T16:15:29.316Z,82.42
2019-01-28T16:17:56.979Z,83.32
2019-01-28T16:20:25.047Z,83.45
2019-01-28T16:22:52.399Z,82.50
2019-01-28T16:25:20.170Z,82.40
2019-01-28T16:27:47.930Z,82.14
2019-01-28T16:30:17.842Z,82.04
2019-01-28T16:32:45.223Z,82.57
2019-01-28T16:35:13.163Z,82.04
2019-01-28T16:37:40.525Z,83.17
2019-01-28T16:40:09.805Z,83.27
2019-01-28T16:42:36.966Z,84.21
2019-01-28T16:45:04.840Z,83.03
2019-01-28T16:47:35.370Z,84.45
2019-01-28T16:50:04.269Z,83.58
2019-01-28T16:52:31.919Z,83.57
2019-01-28T16:54:59.805Z,83.15
2019-01-28T16:57:27.142Z,84.46
2019-01-28T16:59:54.596Z,85.00
2019-01-28T17:02:21.767Z,86.44
2019-01-28T17:04:48.939Z,86.39
2019-01-28T17:07:17.689Z,87.20
2019-01-28T17:09:45.450Z,85.96
2019-01-28T17:12:12.904Z,86.49
2019-01-28T17:14:42.818Z,86.36
2019-01-28T17:17:10.480Z,85.39
2019-01-28T17:19:37.561Z,86.51
2019-01-28T17:22:06.446Z,87.53
2019-01-28T17:24:34.594Z,87.00
2019-01-28T17:27:01.683Z,85.91
2019-01-28T17:29:28.716Z,86.70
2019-01-28T17:31:56.345Z,87.19
2019-01-28T17:34:23.726Z,87.00
2019-01-28T17:36:52.896Z,88.04
2019-01-28T17:39:19.924Z,87.52
2019-01-28T17:41:47.610Z,87.92
2019-01-28T17:44:14.644Z,87.30
2019-01-28T17:46:42.417Z,88.82
2019-01-28T17:49:09.485Z,88.22
2019-01-28T17:51:37.433Z,87.09
2019-01-28T17:54:04.993Z,87.50
2019-01-28T17:56:32.691Z,86.77
2019-01-28T17:58:59.733Z,86.69
2019-01-28T18:01:26.772Z,86.73
2019-01-28T18:03:53.944Z,87.20
2019-01-28T18:06:20.976Z,87.81
2019-01-28T18:08:48.013Z,87.60
2019-01-28T18:11:15.178Z,87.34
2019-01-28T18:13:42.806Z,88.07
2019-01-28T18:16:10.286Z,88.00
2019-01-28T18:18:38.254Z,87.73
2019-01-28T18:21:05.894Z,87.94
2019-01-28T18:24:01.823Z,86.25
2019-01-28T18:26:29.683Z,86.25
2019-01-28T18:28:58.367Z,86.71
2019-01-28T18:31:25.447Z,87.08
2019-01-28T18:33:52.469Z,87.26
2019-01-28T18:36:19.818Z,86.65
2019-01-28T18:38:46.877Z,86.84
2019-01-28T18:41:14.256Z,88.26
2019-01-28T18:43:41.809Z,87.42
2019-01-28T18:46:09.184Z,87.47
2019-01-28T18:48:36.383Z,87.47
2019-01-28T18:51:03.411Z,87.64
2019-01-28T18:53:30.507Z,86.75
2019-01-28T18:55:57.642Z,86.26
2019-01-28T18:58:25.030Z,86.29
2019-01-28T19:00:52.747Z,86.08
2019-01-28T19:03:20.823Z,85.51
2019-01-28T19:05:55.630Z,85.57
2019-01-28T19:08:39.654Z,85.34
2019-01-28T19:11:32.186Z,85.12
2019-01-28T19:14:05.490Z,86.10
2019-01-28T19:17:10.185Z,85.40
2019-01-28T19:19:55.474Z,84.18
2019-01-28T19:22:26.347Z,85.26
2019-01-28T19:24:53.497Z,84.91
2019-01-28T19:27:20.543Z,84.75
2019-01-28T19:29:47.604Z,83.47
2019-01-28T19:32:14.638Z,84.06
2019-01-28T19:34:41.898Z,83.78
2019-01-28T19:37:10.033Z,82.99
2019-01-28T19:39:37.089Z,82.28
2019-01-28T19:42:04.894Z,82.22
2019-01-28T19:44:32.257Z,82.58
2019-01-28T19:46:59.716Z,82.53
2019-01-28T19:49:27.093Z,82.30
2019-01-28T19:51:55.201Z,82.85
2019-01-28T19:54:22.532Z,82.46
2019-01-28T19:56:51.181Z,82.10
2019-01-28T19:59:18.215Z,81.92
2019-01-28T20:01:45.252Z,81.45
2019-01-28T20:04:12.385Z,81.68
2019-01-28T20:06:39.424Z,80.66
2019-01-28T20:09:07.630Z,81.00
2019-01-28T20:11:36.691Z,80.79
2019-01-28T20:14:04.939Z,80.08
2019-01-28T20:16:32.268Z,80.26
2019-01-28T20:18:59.652Z,81.61
2019-01-28T20:21:27.075Z,80.39
2019-01-28T20:23:54.878Z,80.71
2019-01-28T20:26:22.106Z,80.97
2019-01-28T20:28:49.961Z,80.71
2019-01-28T20:31:20.091Z,79.57
2019-01-28T20:33:47.330Z,78.58
2019-01-28T20:36:15.447Z,78.27
2019-01-28T20:38:42.490Z,78.07
2019-01-28T20:41:09.830Z,78.25
2019-01-28T20:43:36.903Z,79.52
2019-01-28T20:46:04.319Z,78.73
2019-01-28T20:48:32.178Z,78.22
2019-01-28T20:50:59.264Z,78.56
2019-01-28T20:53:26.753Z,77.86
2019-01-28T20:55:53.789Z,78.63
2019-01-28T20:58:22.027Z,76.81
2019-01-28T21:00:50.181Z,76.79
2019-01-28T21:03:17.528Z,77.47
2019-01-28T21:05:44.570Z,76.35
2019-01-28T21:08:12.562Z,75.74
2019-01-28T21:10:40.407Z,76.74
2019-01-28T21:13:07.918Z,75.26
2019-01-28T21:15:35.352Z,74.71
2019-01-28T21:18:03.191Z,75.06
2019-01-28T21:20:30.954Z,73.43
2019-01-28T21:22:58.006Z,73.95
2019-01-28T21:25:26.587Z,73.62
2019-01-28T21:27:53.945Z,71.70
2019-01-28T21:30:27.724Z,71.83
2019-01-28T21:32:55.800Z,71.38
2019-01-28T21:35:44.008Z,71.46
2019-01-28T21:38:14.482Z,71.01
2019-01-28T21:40:41.563Z,70.59
2019-01-28T21:43:08.610Z,70.19
2019-01-28T21:45:36.445Z,70.46
2019-01-28T21:48:04.123Z,70.91
2019-01-28T21:50:31.662Z,72.19
2019-01-28T21:52:59.121Z,72.05
2019-01-28T21:55:27.061Z,72.19
2019-01-28T21:57:54.960Z,71.54
2019-01-28T22:00:23.243Z,70.55
2019-01-28T22:02:50.509Z,70.05
2019-01-28T22:05:17.553Z,68.99
2019-01-28T22:07:44.606Z,69.24
2019-01-28T22:10:13.270Z,70.25
2019-01-28T22:12:40.319Z,69.78
2019-01-28T22:15:10.618Z,69.91
2019-01-28T22:17:37.690Z,70.09
2019-01-28T22:20:06.475Z,70.68
2019-01-28T22:22:34.552Z,71.13
2019-01-28T22:25:02.208Z,71.47
2019-01-28T22:27:29.976Z,72.04
2019-01-28T22:29:57.366Z,72.17
2019-01-28T22:32:24.733Z,72.61
2019-01-28T22:34:52.450Z,73.50
2019-01-28T22:37:20.312Z,74.18
2019-01-28T22:39:47.367Z,74.12
2019-01-28T22:42:21.192Z,73.45
2019-01-28T22:44:44.611Z,73.02
2019-01-28T22:47:11.674Z,73.99
2019-01-28T22:49:39.263Z,73.80
2019-01-28T22:52:07.912Z,74.27
2019-01-28T22:54:35.572Z,74.68
2019-01-28T22:57:02.867Z,74.95
2019-01-28T22:59:30.290Z,75.51
2019-01-28T23:01:57.339Z,76.15
2019-01-28T23:04:24.442Z,75.63
2019-01-28T23:06:51.611Z,75.56
2019-01-28T23:09:18.997Z,75.17
2019-01-28T23:11:47.001Z,75.56
2019-01-28T23:14:15.145Z,75.61
2019-01-28T23:16:43.016Z,76.03
2019-01-28T23:19:10.293Z,75.54
2019-01-28T23:21:37.339Z,76.81
2019-01-28T23:24:04.385Z,76.55
2019-01-28T23:26:31.462Z,76.13
2019-01-28T23:28:58.498Z,76.42
2019-01-28T23:31:25.592Z,77.39
2019-01-28T23:33:52.643Z,77.36
2019-01-28T23:36:20.030Z,77.03
2019-01-28T23:38:48.303Z,77.51
2019-01-28T23:41:15.521Z,78.61
2019-01-28T23:43:42.869Z,78.27
2019-01-28T23:46:10.837Z,78.21
2019-01-28T23:48:38.293Z,78.17
2019-01-28T23:51:06.618Z,78.32
2019-01-28T23:53:34.704Z,78.34
2019-01-28T23:56:01.752Z,77.53
2019-01-28T23:58:29.884Z,77.68
